sensor_id;sensor_type;location;lat;lon;timestamp;temperature;humidity
64226;DHT22;50545;56.064;26.178;2023-06-22T00:00:04;15.60;99.70
64226;DHT22;50545;56.064;26.178;2023-06-22T00:02:39;15.50;99.70
64226;DHT22;50545;56.064;26.178;2023-06-22T00:05:07;15.50;99.70
64226;DHT22;50545;56.064;26.178;2023-06-22T00:07:34;15.50;99.70
64226;DHT22;50545;56.064;26.178;2023-06-22T00:10:01;15.50;99.80
64226;DHT22;50545;56.064;26.178;2023-06-22T00:12:28;15.40;99.90
64226;DHT22;50545;56.064;26.178;2023-06-22T00:14:56;15.50;99.90
64226;DHT22;50545;56.064;26.178;2023-06-22T00:17:23;15.50;99.90
64226;DHT22;50545;56.064;26.178;2023-06-22T00:19:50;15.40;99.90
64226;DHT22;50545;56.064;26.178;2023-06-22T00:22:21;15.40;99.90
64226;DHT22;50545;56.064;26.178;2023-06-22T00:24:56;15.40;99.90
64226;DHT22;50545;56.064;26.178;2023-06-22T00:27:23;15.40;99.90
64226;DHT22;50545;56.064;26.178;2023-06-22T00:29:51;15.40;99.90
64226;DHT22;50545;56.064;26.178;2023-06-22T00:32:18;15.40;99.90
64226;DHT22;50545;56.064;26.178;2023-06-22T00:34:46;15.30;99.90
64226;DHT22;50545;56.064;26.178;2023-06-22T00:37:13;15.30;99.90
64226;DHT22;50545;56.064;26.178;2023-06-22T00:39:40;15.30;99.90
64226;DHT22;50545;56.064;26.178;2023-06-22T00:42:08;15.30;99.90
64226;DHT22;50545;56.064;26.178;2023-06-22T00:44:38;15.30;99.90
64226;DHT22;50545;56.064;26.178;2023-06-22T00:47:05;15.20;99.90
64226;DHT22;50545;56.064;26.178;2023-06-22T00:49:33;15.20;99.90
64226;DHT22;50545;56.064;26.178;2023-06-22T00:52:02;15.20;99.90
64226;DHT22;50545;56.064;26.178;2023-06-22T00:54:30;15.10;99.90
64226;DHT22;50545;56.064;26.178;2023-06-22T00:56:57;15.10;99.90
64226;DHT22;50545;56.064;26.178;2023-06-22T00:59:26;15.10;99.90
64226;DHT22;50545;56.064;26.178;2023-06-22T01:01:54;15.10;99.90
64226;DHT22;50545;56.064;26.178;2023-06-22T01:04:25;15.10;99.90
64226;DHT22;50545;56.064;26.178;2023-06-22T01:10:23;15.00;99.90
64226;DHT22;50545;56.064;26.178;2023-06-22T01:12:55;15.00;99.90
64226;DHT22;50545;56.064;26.178;2023-06-22T01:15:43;15.00;99.90
64226;DHT22;50545;56.064;26.178;2023-06-22T01:18:13;14.90;99.90
64226;DHT22;50545;56.064;26.178;2023-06-22T01:20:41;14.90;99.90
64226;DHT22;50545;56.064;26.178;2023-06-22T01:23:39;14.90;99.90
64226;DHT22;50545;56.064;26.178;2023-06-22T01:26:17;14.90;99.90
64226;DHT22;50545;56.064;26.178;2023-06-22T01:28:48;14.80;99.90
64226;DHT22;50545;56.064;26.178;2023-06-22T01:31:18;14.80;99.90
64226;DHT22;50545;56.064;26.178;2023-06-22T01:33:52;14.80;99.90
64226;DHT22;50545;56.064;26.178;2023-06-22T01:36:21;14.80;99.90
64226;DHT22;50545;56.064;26.178;2023-06-22T01:38:49;14.80;99.90
64226;DHT22;50545;56.064;26.178;2023-06-22T01:41:17;14.70;99.90
64226;DHT22;50545;56.064;26.178;2023-06-22T01:43:45;14.80;99.90
64226;DHT22;50545;56.064;26.178;2023-06-22T01:46:13;14.70;99.90
64226;DHT22;50545;56.064;26.178;2023-06-22T01:48:41;14.80;99.90
64226;DHT22;50545;56.064;26.178;2023-06-22T01:51:08;14.80;99.90
64226;DHT22;50545;56.064;26.178;2023-06-22T01:53:35;14.80;99.90
64226;DHT22;50545;56.064;26.178;2023-06-22T01:56:03;14.80;99.90
64226;DHT22;50545;56.064;26.178;2023-06-22T01:58:31;14.70;99.90
64226;DHT22;50545;56.064;26.178;2023-06-22T02:01:12;14.80;99.90
64226;DHT22;50545;56.064;26.178;2023-06-22T02:04:05;14.80;99.90
64226;DHT22;50545;56.064;26.178;2023-06-22T02:06:37;14.80;99.90
64226;DHT22;50545;56.064;26.178;2023-06-22T02:09:09;14.80;99.90
64226;DHT22;50545;56.064;26.178;2023-06-22T02:11:41;14.80;99.90
64226;DHT22;50545;56.064;26.178;2023-06-22T02:14:10;14.80;99.90
64226;DHT22;50545;56.064;26.178;2023-06-22T02:16:38;14.80;99.90
64226;DHT22;50545;56.064;26.178;2023-06-22T02:19:05;14.80;99.90
64226;DHT22;50545;56.064;26.178;2023-06-22T02:21:33;14.80;99.90
64226;DHT22;50545;56.064;26.178;2023-06-22T02:24:00;14.80;99.90
64226;DHT22;50545;56.064;26.178;2023-06-22T02:26:28;14.80;99.90
64226;DHT22;50545;56.064;26.178;2023-06-22T02:28:55;14.90;99.90
64226;DHT22;50545;56.064;26.178;2023-06-22T02:31:23;14.90;99.90
64226;DHT22;50545;56.064;26.178;2023-06-22T02:34:00;14.90;99.90
64226;DHT22;50545;56.064;26.178;2023-06-22T02:36:28;14.90;99.90
64226;DHT22;50545;56.064;26.178;2023-06-22T02:38:58;14.90;99.90
64226;DHT22;50545;56.064;26.178;2023-06-22T02:41:28;14.90;99.90
64226;DHT22;50545;56.064;26.178;2023-06-22T02:43:55;14.90;99.90
64226;DHT22;50545;56.064;26.178;2023-06-22T02:46:23;14.90;99.90
64226;DHT22;50545;56.064;26.178;2023-06-22T02:48:50;14.90;99.90
64226;DHT22;50545;56.064;26.178;2023-06-22T02:51:17;14.90;99.90
64226;DHT22;50545;56.064;26.178;2023-06-22T02:53:44;15.00;99.90
64226;DHT22;50545;56.064;26.178;2023-06-22T02:56:12;15.00;99.90
64226;DHT22;50545;56.064;26.178;2023-06-22T02:58:39;15.00;99.90
64226;DHT22;50545;56.064;26.178;2023-06-22T03:01:07;15.00;99.90
64226;DHT22;50545;56.064;26.178;2023-06-22T03:03:34;15.10;99.90
64226;DHT22;50545;56.064;26.178;2023-06-22T03:06:02;15.10;99.90
64226;DHT22;50545;56.064;26.178;2023-06-22T03:08:29;15.10;99.90
64226;DHT22;50545;56.064;26.178;2023-06-22T03:10:56;15.20;99.90
64226;DHT22;50545;56.064;26.178;2023-06-22T03:13:24;15.30;99.90
64226;DHT22;50545;56.064;26.178;2023-06-22T03:15:51;15.40;99.90
64226;DHT22;50545;56.064;26.178;2023-06-22T03:18:19;15.50;99.90
64226;DHT22;50545;56.064;26.178;2023-06-22T03:20:49;15.50;99.90
64226;DHT22;50545;56.064;26.178;2023-06-22T03:23:16;15.60;99.90
64226;DHT22;50545;56.064;26.178;2023-06-22T03:25:43;15.70;99.90
64226;DHT22;50545;56.064;26.178;2023-06-22T03:28:14;15.80;99.90
64226;DHT22;50545;56.064;26.178;2023-06-22T03:30:41;15.90;99.90
64226;DHT22;50545;56.064;26.178;2023-06-22T03:33:08;16.00;99.90
64226;DHT22;50545;56.064;26.178;2023-06-22T03:35:35;16.20;99.90
64226;DHT22;50545;56.064;26.178;2023-06-22T03:38:03;16.30;99.90
64226;DHT22;50545;56.064;26.178;2023-06-22T03:40:30;16.40;99.90
64226;DHT22;50545;56.064;26.178;2023-06-22T03:42:58;16.50;99.90
64226;DHT22;50545;56.064;26.178;2023-06-22T03:45:25;16.60;99.90
64226;DHT22;50545;56.064;26.178;2023-06-22T03:47:52;16.80;99.90
64226;DHT22;50545;56.064;26.178;2023-06-22T03:50:20;17.10;99.90
64226;DHT22;50545;56.064;26.178;2023-06-22T03:52:47;17.40;99.90
64226;DHT22;50545;56.064;26.178;2023-06-22T03:55:15;17.70;99.90
64226;DHT22;50545;56.064;26.178;2023-06-22T03:57:42;18.10;98.60
64226;DHT22;50545;56.064;26.178;2023-06-22T04:00:10;18.50;97.60
64226;DHT22;50545;56.064;26.178;2023-06-22T04:02:38;18.80;96.70
64226;DHT22;50545;56.064;26.178;2023-06-22T04:05:06;19.10;96.10
64226;DHT22;50545;56.064;26.178;2023-06-22T04:07:33;19.30;95.40
64226;DHT22;50545;56.064;26.178;2023-06-22T04:10:01;19.50;95.30
64226;DHT22;50545;56.064;26.178;2023-06-22T04:12:28;19.60;94.00
64226;DHT22;50545;56.064;26.178;2023-06-22T04:14:55;19.80;93.60
64226;DHT22;50545;56.064;26.178;2023-06-22T04:17:22;19.90;93.40
64226;DHT22;50545;56.064;26.178;2023-06-22T04:19:52;20.10;93.50
64226;DHT22;50545;56.064;26.178;2023-06-22T04:22:19;20.20;93.00
64226;DHT22;50545;56.064;26.178;2023-06-22T04:24:46;20.30;93.10
64226;DHT22;50545;56.064;26.178;2023-06-22T04:27:14;20.40;93.00
64226;DHT22;50545;56.064;26.178;2023-06-22T04:29:42;20.40;93.10
64226;DHT22;50545;56.064;26.178;2023-06-22T04:32:16;20.60;92.80
64226;DHT22;50545;56.064;26.178;2023-06-22T04:34:43;20.60;92.50
64226;DHT22;50545;56.064;26.178;2023-06-22T04:37:11;20.70;92.70
64226;DHT22;50545;56.064;26.178;2023-06-22T04:39:43;20.80;92.50
64226;DHT22;50545;56.064;26.178;2023-06-22T04:42:11;20.90;92.60
64226;DHT22;50545;56.064;26.178;2023-06-22T04:44:39;21.00;92.50
64226;DHT22;50545;56.064;26.178;2023-06-22T04:47:08;21.10;91.80
64226;DHT22;50545;56.064;26.178;2023-06-22T04:49:36;21.20;91.60
64226;DHT22;50545;56.064;26.178;2023-06-22T04:52:09;21.30;91.30
64226;DHT22;50545;56.064;26.178;2023-06-22T04:54:38;21.30;91.40
64226;DHT22;50545;56.064;26.178;2023-06-22T04:57:07;21.40;91.80
64226;DHT22;50545;56.064;26.178;2023-06-22T04:59:38;21.50;91.70
64226;DHT22;50545;56.064;26.178;2023-06-22T05:02:09;21.60;91.80
64226;DHT22;50545;56.064;26.178;2023-06-22T05:04:36;21.70;91.50
64226;DHT22;50545;56.064;26.178;2023-06-22T05:07:06;21.80;91.00
64226;DHT22;50545;56.064;26.178;2023-06-22T05:09:34;21.90;91.70
64226;DHT22;50545;56.064;26.178;2023-06-22T05:12:02;22.00;90.80
64226;DHT22;50545;56.064;26.178;2023-06-22T05:14:29;22.20;91.00
64226;DHT22;50545;56.064;26.178;2023-06-22T05:16:57;22.30;91.00
64226;DHT22;50545;56.064;26.178;2023-06-22T05:19:31;22.40;90.60
64226;DHT22;50545;56.064;26.178;2023-06-22T05:22:02;22.50;90.90
64226;DHT22;50545;56.064;26.178;2023-06-22T05:24:30;22.70;90.20
64226;DHT22;50545;56.064;26.178;2023-06-22T05:26:57;22.70;90.00
64226;DHT22;50545;56.064;26.178;2023-06-22T05:29:24;22.80;89.80
64226;DHT22;50545;56.064;26.178;2023-06-22T05:31:51;22.90;89.70
64226;DHT22;50545;56.064;26.178;2023-06-22T05:34:19;22.90;90.60
64226;DHT22;50545;56.064;26.178;2023-06-22T05:36:46;23.00;89.40
64226;DHT22;50545;56.064;26.178;2023-06-22T05:39:14;23.10;88.40
64226;DHT22;50545;56.064;26.178;2023-06-22T05:41:42;23.30;89.00
64226;DHT22;50545;56.064;26.178;2023-06-22T05:44:11;23.40;88.40
64226;DHT22;50545;56.064;26.178;2023-06-22T05:46:42;23.60;88.40
64226;DHT22;50545;56.064;26.178;2023-06-22T05:49:14;23.80;87.20
64226;DHT22;50545;56.064;26.178;2023-06-22T05:51:42;23.90;87.10
64226;DHT22;50545;56.064;26.178;2023-06-22T05:54:09;24.10;85.70
64226;DHT22;50545;56.064;26.178;2023-06-22T05:56:37;24.20;86.00
64226;DHT22;50545;56.064;26.178;2023-06-22T05:59:04;24.30;86.50
64226;DHT22;50545;56.064;26.178;2023-06-22T06:01:31;24.40;86.10
64226;DHT22;50545;56.064;26.178;2023-06-22T06:04:03;24.50;84.90
64226;DHT22;50545;56.064;26.178;2023-06-22T06:06:31;24.60;86.30
64226;DHT22;50545;56.064;26.178;2023-06-22T06:08:58;24.80;85.90
64226;DHT22;50545;56.064;26.178;2023-06-22T06:11:26;24.90;84.90
64226;DHT22;50545;56.064;26.178;2023-06-22T06:13:54;24.90;83.40
64226;DHT22;50545;56.064;26.178;2023-06-22T06:16:22;24.90;84.40
64226;DHT22;50545;56.064;26.178;2023-06-22T06:18:50;25.00;84.20
64226;DHT22;50545;56.064;26.178;2023-06-22T06:21:17;25.10;83.10
64226;DHT22;50545;56.064;26.178;2023-06-22T06:23:44;24.90;83.50
64226;DHT22;50545;56.064;26.178;2023-06-22T06:26:12;25.00;83.20
64226;DHT22;50545;56.064;26.178;2023-06-22T06:28:39;25.10;83.40
64226;DHT22;50545;56.064;26.178;2023-06-22T06:31:08;25.00;82.60
64226;DHT22;50545;56.064;26.178;2023-06-22T06:33:36;24.90;83.40
64226;DHT22;50545;56.064;26.178;2023-06-22T06:36:03;24.90;84.20
64226;DHT22;50545;56.064;26.178;2023-06-22T06:38:31;24.90;83.90
64226;DHT22;50545;56.064;26.178;2023-06-22T06:40:58;25.00;84.70
64226;DHT22;50545;56.064;26.178;2023-06-22T06:43:26;25.10;86.40
64226;DHT22;50545;56.064;26.178;2023-06-22T06:45:53;25.40;84.30
64226;DHT22;50545;56.064;26.178;2023-06-22T06:48:21;25.70;83.80
64226;DHT22;50545;56.064;26.178;2023-06-22T06:50:48;25.80;82.10
64226;DHT22;50545;56.064;26.178;2023-06-22T06:53:15;25.90;80.60
64226;DHT22;50545;56.064;26.178;2023-06-22T06:55:42;25.90;80.60
64226;DHT22;50545;56.064;26.178;2023-06-22T06:58:12;25.90;80.60
64226;DHT22;50545;56.064;26.178;2023-06-22T07:00:40;25.80;80.50
64226;DHT22;50545;56.064;26.178;2023-06-22T07:03:08;25.80;81.50
64226;DHT22;50545;56.064;26.178;2023-06-22T07:05:35;25.80;80.50
64226;DHT22;50545;56.064;26.178;2023-06-22T07:08:02;25.70;79.60
64226;DHT22;50545;56.064;26.178;2023-06-22T07:10:29;25.60;79.30
64226;DHT22;50545;56.064;26.178;2023-06-22T07:12:57;25.60;80.90
64226;DHT22;50545;56.064;26.178;2023-06-22T07:15:25;25.50;80.30
64226;DHT22;50545;56.064;26.178;2023-06-22T07:17:52;25.70;82.50
64226;DHT22;50545;56.064;26.178;2023-06-22T07:20:19;25.70;79.80
64226;DHT22;50545;56.064;26.178;2023-06-22T07:22:46;25.70;81.40
64226;DHT22;50545;56.064;26.178;2023-06-22T07:25:14;25.80;80.10
64226;DHT22;50545;56.064;26.178;2023-06-22T07:28:06;25.90;81.10
64226;DHT22;50545;56.064;26.178;2023-06-22T07:30:34;25.90;79.70
64226;DHT22;50545;56.064;26.178;2023-06-22T07:33:02;26.00;80.90
64226;DHT22;50545;56.064;26.178;2023-06-22T07:35:31;26.00;80.30
64226;DHT22;50545;56.064;26.178;2023-06-22T07:37:59;26.10;81.00
64226;DHT22;50545;56.064;26.178;2023-06-22T07:40:31;26.10;81.10
64226;DHT22;50545;56.064;26.178;2023-06-22T07:42:58;26.10;80.50
64226;DHT22;50545;56.064;26.178;2023-06-22T07:45:26;26.00;80.10
64226;DHT22;50545;56.064;26.178;2023-06-22T07:47:53;25.90;80.10
64226;DHT22;50545;56.064;26.178;2023-06-22T07:50:20;25.90;79.80
64226;DHT22;50545;56.064;26.178;2023-06-22T07:52:48;25.90;80.30
64226;DHT22;50545;56.064;26.178;2023-06-22T07:55:15;25.90;81.10
64226;DHT22;50545;56.064;26.178;2023-06-22T07:57:42;25.90;81.10
64226;DHT22;50545;56.064;26.178;2023-06-22T08:00:10;26.00;81.60
64226;DHT22;50545;56.064;26.178;2023-06-22T08:02:44;25.90;80.90
64226;DHT22;50545;56.064;26.178;2023-06-22T08:05:13;25.90;80.90
64226;DHT22;50545;56.064;26.178;2023-06-22T08:07:59;25.80;80.50
64226;DHT22;50545;56.064;26.178;2023-06-22T08:10:27;25.80;80.50
64226;DHT22;50545;56.064;26.178;2023-06-22T08:12:54;25.80;81.50
64226;DHT22;50545;56.064;26.178;2023-06-22T08:15:21;25.70;81.00
64226;DHT22;50545;56.064;26.178;2023-06-22T08:17:49;25.70;81.20
64226;DHT22;50545;56.064;26.178;2023-06-22T08:20:16;25.70;81.50
64226;DHT22;50545;56.064;26.178;2023-06-22T08:22:44;25.60;80.60
64226;DHT22;50545;56.064;26.178;2023-06-22T08:25:11;25.60;81.80
64226;DHT22;50545;56.064;26.178;2023-06-22T08:27:40;25.60;82.30
64226;DHT22;50545;56.064;26.178;2023-06-22T08:30:09;25.60;80.70
64226;DHT22;50545;56.064;26.178;2023-06-22T08:32:37;25.60;82.30
64226;DHT22;50545;56.064;26.178;2023-06-22T08:35:05;25.70;81.10
64226;DHT22;50545;56.064;26.178;2023-06-22T08:37:35;25.80;81.90
64226;DHT22;50545;56.064;26.178;2023-06-22T08:40:05;26.00;82.00
64226;DHT22;50545;56.064;26.178;2023-06-22T08:42:32;26.00;79.60
64226;DHT22;50545;56.064;26.178;2023-06-22T08:45:00;25.80;80.50
64226;DHT22;50545;56.064;26.178;2023-06-22T08:47:28;25.70;81.60
64226;DHT22;50545;56.064;26.178;2023-06-22T08:49:55;25.70;80.40
64226;DHT22;50545;56.064;26.178;2023-06-22T08:52:23;25.80;82.70
64226;DHT22;50545;56.064;26.178;2023-06-22T08:54:50;25.90;82.10
64226;DHT22;50545;56.064;26.178;2023-06-22T08:57:18;26.00;83.10
64226;DHT22;50545;56.064;26.178;2023-06-22T08:59:45;25.80;80.50
64226;DHT22;50545;56.064;26.178;2023-06-22T09:02:12;25.50;82.60
64226;DHT22;50545;56.064;26.178;2023-06-22T09:04:40;25.50;81.90
64226;DHT22;50545;56.064;26.178;2023-06-22T09:07:08;25.50;82.90
64226;DHT22;50545;56.064;26.178;2023-06-22T09:09:36;25.40;82.60
64226;DHT22;50545;56.064;26.178;2023-06-22T09:12:04;25.50;83.80
64226;DHT22;50545;56.064;26.178;2023-06-22T09:14:31;25.70;83.70
64226;DHT22;50545;56.064;26.178;2023-06-22T09:16:59;25.80;79.00
64226;DHT22;50545;56.064;26.178;2023-06-22T09:19:26;25.80;77.50
64226;DHT22;50545;56.064;26.178;2023-06-22T09:21:53;25.80;78.70
64226;DHT22;50545;56.064;26.178;2023-06-22T09:24:20;25.70;77.40
64226;DHT22;50545;56.064;26.178;2023-06-22T09:26:48;25.60;77.20
64226;DHT22;50545;56.064;26.178;2023-06-22T09:29:15;25.40;77.00
64226;DHT22;50545;56.064;26.178;2023-06-22T09:31:42;25.30;77.20
64226;DHT22;50545;56.064;26.178;2023-06-22T09:34:09;25.10;77.10
64226;DHT22;50545;56.064;26.178;2023-06-22T09:36:36;24.80;77.90
64226;DHT22;50545;56.064;26.178;2023-06-22T09:39:06;24.50;78.60
64226;DHT22;50545;56.064;26.178;2023-06-22T09:41:33;24.30;80.20
64226;DHT22;50545;56.064;26.178;2023-06-22T09:44:01;24.00;80.60
64226;DHT22;50545;56.064;26.178;2023-06-22T09:46:28;23.70;80.40
64226;DHT22;50545;56.064;26.178;2023-06-22T09:48:55;23.60;82.20
64226;DHT22;50545;56.064;26.178;2023-06-22T09:51:23;23.50;83.80
64226;DHT22;50545;56.064;26.178;2023-06-22T09:53:51;23.40;85.30
64226;DHT22;50545;56.064;26.178;2023-06-22T09:56:19;23.30;87.20
64226;DHT22;50545;56.064;26.178;2023-06-22T09:58:47;23.20;88.90
64226;DHT22;50545;56.064;26.178;2023-06-22T10:01:14;23.10;90.70
64226;DHT22;50545;56.064;26.178;2023-06-22T10:03:41;22.90;90.60
64226;DHT22;50545;56.064;26.178;2023-06-22T10:06:09;22.70;91.30
64226;DHT22;50545;56.064;26.178;2023-06-22T10:08:36;22.60;91.90
64226;DHT22;50545;56.064;26.178;2023-06-22T10:11:04;22.40;92.30
64226;DHT22;50545;56.064;26.178;2023-06-22T10:13:31;22.30;92.50
64226;DHT22;50545;56.064;26.178;2023-06-22T10:15:58;22.10;93.00
64226;DHT22;50545;56.064;26.178;2023-06-22T10:18:25;22.00;93.50
64226;DHT22;50545;56.064;26.178;2023-06-22T10:20:53;21.80;94.30
64226;DHT22;50545;56.064;26.178;2023-06-22T10:23:20;21.70;95.20
64226;DHT22;50545;56.064;26.178;2023-06-22T10:25:47;21.70;95.40
64226;DHT22;50545;56.064;26.178;2023-06-22T10:28:15;21.60;95.50
64226;DHT22;50545;56.064;26.178;2023-06-22T10:30:43;21.50;95.60
64226;DHT22;50545;56.064;26.178;2023-06-22T10:33:11;21.50;96.10
64226;DHT22;50545;56.064;26.178;2023-06-22T10:35:38;21.40;96.40
64226;DHT22;50545;56.064;26.178;2023-06-22T10:38:06;21.40;97.20
64226;DHT22;50545;56.064;26.178;2023-06-22T10:40:34;21.40;96.90
64226;DHT22;50545;56.064;26.178;2023-06-22T10:43:01;21.40;97.20
64226;DHT22;50545;56.064;26.178;2023-06-22T10:45:28;21.40;97.40
64226;DHT22;50545;56.064;26.178;2023-06-22T10:47:56;21.40;97.60
64226;DHT22;50545;56.064;26.178;2023-06-22T10:50:24;21.40;97.90
64226;DHT22;50545;56.064;26.178;2023-06-22T10:52:53;21.30;98.00
64226;DHT22;50545;56.064;26.178;2023-06-22T10:55:23;21.30;98.30
64226;DHT22;50545;56.064;26.178;2023-06-22T10:57:50;21.40;98.20
64226;DHT22;50545;56.064;26.178;2023-06-22T11:00:17;21.40;98.50
64226;DHT22;50545;56.064;26.178;2023-06-22T11:02:44;21.50;98.50
64226;DHT22;50545;56.064;26.178;2023-06-22T11:05:12;21.50;98.60
64226;DHT22;50545;56.064;26.178;2023-06-22T11:07:43;21.60;98.60
64226;DHT22;50545;56.064;26.178;2023-06-22T11:10:12;21.60;98.60
64226;DHT22;50545;56.064;26.178;2023-06-22T11:12:40;21.70;98.50
64226;DHT22;50545;56.064;26.178;2023-06-22T11:15:08;21.80;98.40
64226;DHT22;50545;56.064;26.178;2023-06-22T11:17:35;21.90;98.30
64226;DHT22;50545;56.064;26.178;2023-06-22T11:20:03;22.00;98.30
64226;DHT22;50545;56.064;26.178;2023-06-22T11:22:39;22.00;97.70
64226;DHT22;50545;56.064;26.178;2023-06-22T11:25:07;22.10;98.40
64226;DHT22;50545;56.064;26.178;2023-06-22T11:27:35;22.20;98.10
64226;DHT22;50545;56.064;26.178;2023-06-22T11:30:02;22.50;98.10
64226;DHT22;50545;56.064;26.178;2023-06-22T11:32:30;22.70;97.60
64226;DHT22;50545;56.064;26.178;2023-06-22T11:34:57;22.90;96.10
64226;DHT22;50545;56.064;26.178;2023-06-22T11:37:24;23.00;95.30
64226;DHT22;50545;56.064;26.178;2023-06-22T11:39:51;23.10;95.50
64226;DHT22;50545;56.064;26.178;2023-06-22T11:42:32;23.10;94.80
64226;DHT22;50545;56.064;26.178;2023-06-22T11:44:59;23.10;95.10
64226;DHT22;50545;56.064;26.178;2023-06-22T11:47:27;23.00;94.80
64226;DHT22;50545;56.064;26.178;2023-06-22T11:49:54;22.90;94.50
64226;DHT22;50545;56.064;26.178;2023-06-22T11:52:21;22.80;94.70
64226;DHT22;50545;56.064;26.178;2023-06-22T11:54:48;22.70;95.20
64226;DHT22;50545;56.064;26.178;2023-06-22T11:57:16;22.50;94.70
64226;DHT22;50545;56.064;26.178;2023-06-22T11:59:43;22.40;95.20
64226;DHT22;50545;56.064;26.178;2023-06-22T12:02:10;22.20;95.50
64226;DHT22;50545;56.064;26.178;2023-06-22T12:04:37;22.20;95.80
64226;DHT22;50545;56.064;26.178;2023-06-22T12:07:05;22.00;95.70
64226;DHT22;50545;56.064;26.178;2023-06-22T12:09:32;21.90;96.20
64226;DHT22;50545;56.064;26.178;2023-06-22T12:11:59;21.80;96.60
64226;DHT22;50545;56.064;26.178;2023-06-22T12:14:28;21.70;96.90
64226;DHT22;50545;56.064;26.178;2023-06-22T12:16:57;21.80;97.00
64226;DHT22;50545;56.064;26.178;2023-06-22T12:19:24;21.80;97.00
64226;DHT22;50545;56.064;26.178;2023-06-22T12:21:53;21.90;97.60
64226;DHT22;50545;56.064;26.178;2023-06-22T12:24:20;22.20;97.90
64226;DHT22;50545;56.064;26.178;2023-06-22T12:26:47;22.50;97.00
64226;DHT22;50545;56.064;26.178;2023-06-22T12:29:14;22.80;96.50
64226;DHT22;50545;56.064;26.178;2023-06-22T12:31:42;23.10;96.20
64226;DHT22;50545;56.064;26.178;2023-06-22T12:34:09;23.70;96.00
64226;DHT22;50545;56.064;26.178;2023-06-22T12:36:36;24.40;93.20
64226;DHT22;50545;56.064;26.178;2023-06-22T12:39:03;24.90;91.90
64226;DHT22;50545;56.064;26.178;2023-06-22T12:41:31;25.40;91.70
64226;DHT22;50545;56.064;26.178;2023-06-22T12:43:58;25.60;90.20
64226;DHT22;50545;56.064;26.178;2023-06-22T12:46:25;25.90;90.30
64226;DHT22;50545;56.064;26.178;2023-06-22T12:48:52;26.10;86.30
64226;DHT22;50545;56.064;26.178;2023-06-22T12:51:23;26.00;86.60
64226;DHT22;50545;56.064;26.178;2023-06-22T12:53:50;26.10;89.70
64226;DHT22;50545;56.064;26.178;2023-06-22T12:56:17;26.30;85.70
64226;DHT22;50545;56.064;26.178;2023-06-22T12:58:44;26.30;83.30
64226;DHT22;50545;56.064;26.178;2023-06-22T13:01:11;26.40;88.70
64226;DHT22;50545;56.064;26.178;2023-06-22T13:03:39;26.70;84.50
64226;DHT22;50545;56.064;26.178;2023-06-22T13:06:06;27.00;83.30
64226;DHT22;50545;56.064;26.178;2023-06-22T13:08:33;27.10;81.70
64226;DHT22;50545;56.064;26.178;2023-06-22T13:11:21;26.80;81.40
64226;DHT22;50545;56.064;26.178;2023-06-22T13:13:48;26.30;83.00
64226;DHT22;50545;56.064;26.178;2023-06-22T13:16:15;25.60;84.50
64226;DHT22;50545;56.064;26.178;2023-06-22T13:18:43;25.00;87.00
64226;DHT22;50545;56.064;26.178;2023-06-22T13:21:10;24.60;88.90
64226;DHT22;50545;56.064;26.178;2023-06-22T13:23:37;24.30;90.80
64226;DHT22;50545;56.064;26.178;2023-06-22T13:26:04;24.10;91.40
64226;DHT22;50545;56.064;26.178;2023-06-22T13:28:31;23.80;92.30
64226;DHT22;50545;56.064;26.178;2023-06-22T13:30:58;23.60;93.40
64226;DHT22;50545;56.064;26.178;2023-06-22T13:33:26;23.60;94.70
64226;DHT22;50545;56.064;26.178;2023-06-22T13:35:53;23.40;94.40
64226;DHT22;50545;56.064;26.178;2023-06-22T13:38:20;23.40;95.10
64226;DHT22;50545;56.064;26.178;2023-06-22T13:40:48;23.40;94.90
64226;DHT22;50545;56.064;26.178;2023-06-22T13:43:16;23.30;95.00
64226;DHT22;50545;56.064;26.178;2023-06-22T13:45:43;23.20;95.10
64226;DHT22;50545;56.064;26.178;2023-06-22T13:48:10;23.20;95.20
64226;DHT22;50545;56.064;26.178;2023-06-22T13:50:37;23.30;95.20
64226;DHT22;50545;56.064;26.178;2023-06-22T13:53:05;23.40;94.90
64226;DHT22;50545;56.064;26.178;2023-06-22T13:55:32;23.60;94.50
64226;DHT22;50545;56.064;26.178;2023-06-22T13:57:59;24.10;94.90
64226;DHT22;50545;56.064;26.178;2023-06-22T14:00:26;24.80;93.40
64226;DHT22;50545;56.064;26.178;2023-06-22T14:02:55;25.30;91.00
64226;DHT22;50545;56.064;26.178;2023-06-22T14:05:22;25.80;91.10
64226;DHT22;50545;56.064;26.178;2023-06-22T14:07:49;26.10;88.90
64226;DHT22;50545;56.064;26.178;2023-06-22T14:10:17;25.90;87.70
64226;DHT22;50545;56.064;26.178;2023-06-22T14:12:44;25.70;87.70
64226;DHT22;50545;56.064;26.178;2023-06-22T14:15:11;25.50;86.60
64226;DHT22;50545;56.064;26.178;2023-06-22T14:17:38;25.40;88.30
64226;DHT22;50545;56.064;26.178;2023-06-22T14:20:06;25.30;88.30
64226;DHT22;50545;56.064;26.178;2023-06-22T14:22:35;25.00;87.30
64226;DHT22;50545;56.064;26.178;2023-06-22T14:25:04;24.70;89.70
64226;DHT22;50545;56.064;26.178;2023-06-22T14:27:31;24.30;90.40
64226;DHT22;50545;56.064;26.178;2023-06-22T14:29:58;24.10;91.30
64226;DHT22;50545;56.064;26.178;2023-06-22T14:32:28;24.10;91.50
64226;DHT22;50545;56.064;26.178;2023-06-22T14:34:56;24.40;91.30
64226;DHT22;50545;56.064;26.178;2023-06-22T14:37:24;24.70;90.90
64226;DHT22;50545;56.064;26.178;2023-06-22T14:39:51;25.10;91.00
64226;DHT22;50545;56.064;26.178;2023-06-22T14:42:18;25.40;88.70
64226;DHT22;50545;56.064;26.178;2023-06-22T14:44:45;25.70;88.60
64226;DHT22;50545;56.064;26.178;2023-06-22T14:47:12;25.80;86.00
64226;DHT22;50545;56.064;26.178;2023-06-22T14:49:40;25.70;86.60
64226;DHT22;50545;56.064;26.178;2023-06-22T14:52:08;25.50;86.40
64226;DHT22;50545;56.064;26.178;2023-06-22T14:54:35;25.30;85.90
64226;DHT22;50545;56.064;26.178;2023-06-22T14:57:02;24.90;86.90
64226;DHT22;50545;56.064;26.178;2023-06-22T14:59:29;24.60;88.70
64226;DHT22;50545;56.064;26.178;2023-06-22T15:01:57;24.40;89.80
64226;DHT22;50545;56.064;26.178;2023-06-22T15:04:24;24.40;90.10
64226;DHT22;50545;56.064;26.178;2023-06-22T15:06:51;24.70;90.00
64226;DHT22;50545;56.064;26.178;2023-06-22T15:09:18;24.80;87.80
64226;DHT22;50545;56.064;26.178;2023-06-22T15:11:45;24.70;87.20
64226;DHT22;50545;56.064;26.178;2023-06-22T15:14:14;24.70;85.80
64226;DHT22;50545;56.064;26.178;2023-06-22T15:16:41;24.80;85.60
64226;DHT22;50545;56.064;26.178;2023-06-22T15:19:08;24.70;85.10
64226;DHT22;50545;56.064;26.178;2023-06-22T15:21:36;24.40;86.40
64226;DHT22;50545;56.064;26.178;2023-06-22T15:24:04;24.30;87.90